createdAt,value
2023-05-24T00:00:46.874Z,10.93
2023-05-24T00:03:19.319Z,11.10
2023-05-24T00:05:52.439Z,8.73
2023-05-24T00:08:24.604Z,9.27
2023-05-24T00:10:56.445Z,10.77
2023-05-24T00:13:28.388Z,10.23
2023-05-24T00:16:00.315Z,9.05
2023-05-24T00:18:32.211Z,10.00
2023-05-24T00:21:04.101Z,10.48
2023-05-24T00:23:37.182Z,7.82
2023-05-24T00:26:09.597Z,7.93
2023-05-24T00:28:44.730Z,10.82
2023-05-24T00:31:16.794Z,10.13
2023-05-24T00:33:49.256Z,8.43
2023-05-24T00:36:23.786Z,8.05
2023-05-24T00:38:55.644Z,8.55
2023-05-24T00:41:27.570Z,8.25
2023-05-24T00:43:59.510Z,8.70
2023-05-24T00:46:33.974Z,8.05
2023-05-24T00:49:06.116Z,8.15
2023-05-24T00:51:38.594Z,9.75
2023-05-24T00:54:10.642Z,8.98
2023-05-24T00:56:43.494Z,10.05
2023-05-24T00:59:15.752Z,9.07
2023-05-24T01:01:47.678Z,9.50
2023-05-24T01:04:20.550Z,9.75
2023-05-24T01:07:13.997Z,9.23
2023-05-24T01:09:51.977Z,8.93
2023-05-24T01:12:35.103Z,9.27
2023-05-24T01:15:30.721Z,8.45
2023-05-24T01:18:11.683Z,10.60
2023-05-24T01:20:44.430Z,10.40
2023-05-24T01:23:48.981Z,8.63
2023-05-24T01:26:48.869Z,7.88
2023-05-24T01:29:22.166Z,9.77
2023-05-24T01:31:54.294Z,8.93
2023-05-24T01:34:26.672Z,8.63
2023-05-24T01:36:58.677Z,12.57
2023-05-24T01:39:31.079Z,9.90
2023-05-24T01:42:20.841Z,11.68
2023-05-24T01:45:00.532Z,10.07
2023-05-24T01:48:01.101Z,9.60
2023-05-24T01:50:37.043Z,7.88
2023-05-24T01:53:13.499Z,8.82
2023-05-24T01:55:48.634Z,11.45
2023-05-24T01:58:22.950Z,11.40
2023-05-24T02:00:55.807Z,10.30
2023-05-24T02:03:27.812Z,8.40
2023-05-24T02:06:02.019Z,10.15
2023-05-24T02:08:34.017Z,11.05
2023-05-24T02:11:06.029Z,7.93
2023-05-24T02:13:37.932Z,11.15
2023-05-24T02:16:10.876Z,12.52
2023-05-24T02:18:44.616Z,8.80
2023-05-24T02:21:16.660Z,9.23
2023-05-24T02:23:48.598Z,8.68
2023-05-24T02:26:20.509Z,9.90
2023-05-24T02:28:52.504Z,9.88
2023-05-24T02:31:28.771Z,9.65
2023-05-24T02:34:01.059Z,10.63
2023-05-24T02:36:36.147Z,12.93
2023-05-24T02:39:08.719Z,13.48
2023-05-24T02:41:41.260Z,9.45
2023-05-24T02:44:13.189Z,9.68
2023-05-24T02:46:45.197Z,11.95
2023-05-24T02:49:17.142Z,10.30
2023-05-24T02:51:49.010Z,10.13
2023-05-24T02:54:20.848Z,10.45
2023-05-24T02:56:52.771Z,10.63
2023-05-24T02:59:25.498Z,12.27
2023-05-24T03:01:57.568Z,9.50
2023-05-24T03:04:31.315Z,9.85
2023-05-24T03:07:03.426Z,9.25
2023-05-24T03:09:35.594Z,9.68
2023-05-24T03:12:07.677Z,11.52
2023-05-24T03:14:39.908Z,12.00
2023-05-24T03:17:11.870Z,10.02
2023-05-24T03:19:43.789Z,10.32
2023-05-24T03:22:15.802Z,11.45
2023-05-24T03:24:48.894Z,9.60
2023-05-24T03:27:21.321Z,9.45
2023-05-24T03:29:53.426Z,10.63
2023-05-24T03:32:28.699Z,12.20
2023-05-24T03:35:01.707Z,13.95
2023-05-24T03:37:33.868Z,11.48
2023-05-24T03:40:06.796Z,9.75
2023-05-24T03:42:54.413Z,10.48
2023-05-24T03:45:39.680Z,10.07
2023-05-24T03:48:12.094Z,10.25
2023-05-24T03:50:44.334Z,11.10
2023-05-24T03:53:16.677Z,9.52
2023-05-24T03:55:48.673Z,11.82
2023-05-24T03:58:20.731Z,10.82
2023-05-24T04:00:52.680Z,9.30
2023-05-24T04:03:26.166Z,9.30
2023-05-24T04:05:58.309Z,9.40
2023-05-24T04:08:31.549Z,9.75
2023-05-24T04:11:03.578Z,12.60
2023-05-24T04:13:36.153Z,10.50
2023-05-24T04:16:09.812Z,11.55
2023-05-24T04:18:41.889Z,9.85
2023-05-24T04:21:14.000Z,11.73
2023-05-24T04:23:46.196Z,11.88
2023-05-24T04:26:18.681Z,10.63
2023-05-24T04:28:50.552Z,14.13
2023-05-24T04:31:22.721Z,11.35
2023-05-24T04:33:55.211Z,12.15
2023-05-24T04:36:28.909Z,9.80
2023-05-24T04:39:05.258Z,11.52
2023-05-24T04:41:37.323Z,18.20
2023-05-24T04:44:09.873Z,32.42
2023-05-24T04:46:41.885Z,9.85
2023-05-24T04:49:13.845Z,14.02
2023-05-24T04:51:46.708Z,11.27
2023-05-24T04:54:18.717Z,8.07
2023-05-24T04:56:50.813Z,8.82
2023-05-24T04:59:22.720Z,10.25
2023-05-24T05:01:54.751Z,10.13
2023-05-24T05:04:26.736Z,10.05
2023-05-24T05:06:58.612Z,10.88
2023-05-24T05:09:30.834Z,9.80
2023-05-24T05:12:03.007Z,9.93
2023-05-24T05:14:34.898Z,10.50
2023-05-24T05:17:06.761Z,11.05
2023-05-24T05:19:38.697Z,12.13
2023-05-24T05:22:11.022Z,13.10
2023-05-24T05:24:42.880Z,13.15
2023-05-24T05:27:14.826Z,14.73
2023-05-24T05:29:46.768Z,11.82
2023-05-24T05:32:18.821Z,10.38
2023-05-24T05:34:50.841Z,9.57
2023-05-24T05:37:22.743Z,9.80
2023-05-24T05:39:54.690Z,13.60
2023-05-24T05:42:26.782Z,12.43
2023-05-24T05:44:58.696Z,16.85
2023-05-24T05:47:30.656Z,11.07
2023-05-24T05:50:02.560Z,14.00
2023-05-24T05:52:34.730Z,13.13
2023-05-24T05:55:07.315Z,12.43
2023-05-24T05:57:39.321Z,13.52
2023-05-24T06:00:11.899Z,18.23
2023-05-24T06:02:46.997Z,13.55
2023-05-24T06:05:19.729Z,12.70
2023-05-24T06:07:51.623Z,15.75
2023-05-24T06:10:23.516Z,13.68
2023-05-24T06:12:55.827Z,12.07
2023-05-24T06:15:27.813Z,13.82
2023-05-24T06:18:02.249Z,16.77
2023-05-24T06:20:34.398Z,12.90
2023-05-24T06:23:07.182Z,12.82
2023-05-24T06:25:40.520Z,12.25
2023-05-24T06:28:12.438Z,15.27
2023-05-24T06:30:44.498Z,13.10
2023-05-24T06:33:16.773Z,16.60
2023-05-24T06:35:49.035Z,13.15
2023-05-24T06:38:21.588Z,13.23
2023-05-24T19:04:21.368Z,8.15
2023-05-24T19:06:53.384Z,7.43
2023-05-24T19:09:25.917Z,6.28
2023-05-24T19:12:03.510Z,6.70
2023-05-24T19:14:35.812Z,8.90
2023-05-24T19:17:08.068Z,6.47
2023-05-24T19:19:41.120Z,5.80
2023-05-24T19:22:14.729Z,7.20
2023-05-24T19:24:47.458Z,7.95
2023-05-24T19:27:20.799Z,8.48
2023-05-24T19:29:55.089Z,10.02
2023-05-24T19:32:27.807Z,6.80
2023-05-24T19:35:01.120Z,13.70
2023-05-24T19:37:33.057Z,7.95
2023-05-24T19:40:06.954Z,6.90
2023-05-24T19:42:40.417Z,5.03
2023-05-24T19:45:14.112Z,7.07
2023-05-24T19:47:46.179Z,9.02
2023-05-24T19:50:19.770Z,6.05
2023-05-24T19:52:52.248Z,4.82
2023-05-24T19:55:24.228Z,6.82
2023-05-24T19:57:57.356Z,6.00
2023-05-24T20:00:31.853Z,6.53
2023-05-24T20:03:03.948Z,5.03
2023-05-24T20:05:41.330Z,5.78
2023-05-24T20:08:13.497Z,7.65
2023-05-24T20:10:45.619Z,8.02
2023-05-24T20:13:17.666Z,5.25
2023-05-24T20:15:50.827Z,5.03
2023-05-24T20:18:26.514Z,4.78
2023-05-24T20:21:02.042Z,5.57
2023-05-24T20:23:35.538Z,5.10
2023-05-24T20:26:09.092Z,4.38
2023-05-24T20:28:41.065Z,5.00
2023-05-24T20:31:13.362Z,8.43
2023-05-24T20:33:48.232Z,6.47
2023-05-24T20:36:22.455Z,4.93
2023-05-24T20:38:55.611Z,5.22
2023-05-24T20:41:30.899Z,6.22
2023-05-24T20:44:09.781Z,6.65
2023-05-24T20:46:42.871Z,7.82
2023-05-24T20:49:18.095Z,5.93
2023-05-24T20:51:51.026Z,6.47
2023-05-24T20:54:23.031Z,8.18
2023-05-24T20:56:54.993Z,5.10
2023-05-24T20:59:35.705Z,6.28
2023-05-24T21:02:07.777Z,5.90
2023-05-24T21:04:40.185Z,6.57
2023-05-24T21:07:12.317Z,5.45
2023-05-24T21:09:44.228Z,6.70
2023-05-24T21:12:16.675Z,5.70
2023-05-24T21:14:48.617Z,4.97
2023-05-24T21:17:21.983Z,9.18
2023-05-24T21:19:54.027Z,6.93
2023-05-24T21:22:26.065Z,6.45
2023-05-24T21:24:58.206Z,4.82
2023-05-24T21:27:33.165Z,5.43
2023-05-24T21:30:07.011Z,4.85
2023-05-24T21:32:39.140Z,5.70
2023-05-24T21:35:12.103Z,4.90
2023-05-24T21:37:44.459Z,5.80
2023-05-24T21:40:17.870Z,5.95
2023-05-24T21:42:49.843Z,5.40
2023-05-24T21:45:21.832Z,5.03
2023-05-24T21:47:53.949Z,5.35
2023-05-24T21:50:26.178Z,5.93
2023-05-24T21:52:58.196Z,5.80
2023-05-24T21:55:30.200Z,4.60
2023-05-24T21:58:02.133Z,6.00
2023-05-24T22:00:34.063Z,4.43
2023-05-24T22:03:06.172Z,5.07
2023-05-24T22:05:38.732Z,4.95
2023-05-24T22:08:11.048Z,5.65
2023-05-24T22:10:43.094Z,4.15
2023-05-24T22:13:15.063Z,5.18
2023-05-24T22:15:47.026Z,4.30
2023-05-24T22:18:21.210Z,4.40
2023-05-24T22:20:53.151Z,3.70
2023-05-24T22:23:28.265Z,5.18
2023-05-24T22:26:00.271Z,4.18
2023-05-24T22:28:51.486Z,4.07
2023-05-24T22:31:25.534Z,7.00
2023-05-24T22:34:02.336Z,4.43
2023-05-24T22:36:34.834Z,4.40
2023-05-24T22:39:07.277Z,4.30
2023-05-24T22:41:39.170Z,4.47
2023-05-24T22:44:11.148Z,5.82
2023-05-24T22:46:43.166Z,4.40
2023-05-24T22:49:19.615Z,4.68
2023-05-24T22:51:53.426Z,5.32
2023-05-24T22:54:25.278Z,6.45
2023-05-24T22:56:57.138Z,5.15
2023-05-24T22:59:31.257Z,4.63
2023-05-24T23:02:04.609Z,4.20
2023-05-24T23:04:37.863Z,6.75
2023-05-24T23:07:09.889Z,6.63
2023-05-24T23:09:44.731Z,4.68
2023-05-24T23:12:18.413Z,5.28
2023-05-24T23:14:50.496Z,5.97
2023-05-24T23:17:23.750Z,4.90
2023-05-24T23:19:55.804Z,4.75
2023-05-24T23:22:27.713Z,5.15
2023-05-24T23:24:59.643Z,7.50
2023-05-24T23:27:31.602Z,4.65
2023-05-24T23:30:03.728Z,7.93
2023-05-24T23:32:35.791Z,6.65
2023-05-24T23:35:08.014Z,7.78
2023-05-24T23:37:39.971Z,6.88
2023-05-24T23:40:12.367Z,9.70
2023-05-24T23:42:44.268Z,6.32
2023-05-24T23:45:16.457Z,8.90
2023-05-24T23:47:48.358Z,5.40
2023-05-24T23:50:22.615Z,5.78
2023-05-24T23:52:55.132Z,5.50
2023-05-24T23:58:19.052Z,7.38
